Time;durP1;ratioP1;P1;durP2;ratioP2;P2;SDS_P1;SDS_P2;PMS_P1;PMS_P2;Temp;Humidity;BMP_temperature;BMP_pressure;BME280_temperature;BME280_humidity;BME280_pressure;Samples;Min_cycle;Max_cycle;Signal;HPM_P1;HPM_P2
2022/01/06 00:02:03;;;;;;;12.63;1.33;;;3.50;99.90;;;;;;4973805;28;20065;-96
2022/01/06 00:04:29;;;;;;;10.07;0.95;;;3.80;99.90;;;;;;4971389;28;20054;-96
2022/01/06 00:06:58;;;;;;;7.40;0.88;;;3.40;99.90;;;;;;4973410;28;20061;-95
2022/01/06 00:09:23;;;;;;;13.88;1.58;;;3.30;99.90;;;;;;4991060;28;20046;-96
2022/01/06 00:11:49;;;;;;;7.93;1.25;;;3.20;99.90;;;;;;4974064;28;20053;-96
2022/01/06 00:17:19;;;;;;;13.82;1.38;;;3.20;99.90;;;;;;4994122;28;20492;-96
2022/01/06 00:25:03;;;;;;;14.88;1.85;;;3.10;99.90;;;;;;4989673;28;20054;-96
2022/01/06 00:27:28;;;;;;;14.23;1.60;;;2.80;99.90;;;;;;4971844;28;20058;-96
2022/01/06 00:29:54;;;;;;;16.45;1.90;;;2.70;99.90;;;;;;4988105;28;20096;-96
2022/01/06 00:32:20;;;;;;;16.25;2.38;;;2.80;99.90;;;;;;4973289;28;20058;-96
2022/01/06 00:34:46;;;;;;;18.85;1.98;;;2.70;99.90;;;;;;4971299;28;20117;-96
2022/01/06 00:37:11;;;;;;;10.65;2.00;;;2.70;99.90;;;;;;4968730;28;20049;-96
2022/01/06 00:39:37;;;;;;;15.55;1.83;;;2.90;99.90;;;;;;4982169;28;20061;-96
2022/01/06 00:42:03;;;;;;;14.55;1.90;;;2.50;99.90;;;;;;4945927;28;20054;-96
2022/01/06 00:44:29;;;;;;;21.90;1.92;;;2.50;99.90;;;;;;4959480;28;20058;-96
2022/01/06 00:46:55;;;;;;;19.38;2.58;;;2.40;99.90;;;;;;4959030;28;20054;-96
2022/01/06 00:49:20;;;;;;;21.85;2.25;;;2.40;99.90;;;;;;4942889;28;20058;-96
2022/01/06 00:51:46;;;;;;;25.15;2.35;;;2.40;99.90;;;;;;4946348;28;20051;-96
2022/01/06 00:54:13;;;;;;;16.25;1.83;;;2.40;99.90;;;;;;4962070;28;20431;-96
2022/01/06 00:56:38;;;;;;;19.08;2.60;;;2.50;99.90;;;;;;4961442;28;20058;-96
2022/01/06 00:59:04;;;;;;;20.02;2.30;;;2.40;99.90;;;;;;4964736;28;20154;-96
2022/01/06 01:01:31;;;;;;;21.60;2.17;;;2.50;99.90;;;;;;4963123;28;20089;-96
2022/01/06 01:03:57;;;;;;;23.35;2.63;;;2.40;99.90;;;;;;4946034;28;20055;-96
2022/01/06 01:06:23;;;;;;;25.92;2.60;;;2.30;99.90;;;;;;4963889;28;20058;-96
2022/01/06 01:08:49;;;;;;;20.58;2.35;;;2.10;99.90;;;;;;4947987;28;20058;-96
2022/01/06 01:11:15;;;;;;;21.23;2.28;;;2.20;99.90;;;;;;4944745;28;20062;-96
2022/01/06 01:13:56;;;;;;;28.80;2.40;;;2.30;99.90;;;;;;4961310;28;20070;-96
2022/01/06 01:16:31;;;;;;;28.50;3.72;;;2.00;99.90;;;;;;4950405;28;20054;-96
2022/01/06 01:19:00;;;;;;;19.38;2.35;;;1.90;99.90;;;;;;4950834;28;20113;-96
2022/01/06 01:21:27;;;;;;;21.33;2.15;;;2.10;99.90;;;;;;4965581;28;20051;-96
2022/01/06 01:23:58;;;;;;;28.65;2.72;;;2.00;99.90;;;;;;4949087;28;20093;-96
2022/01/06 01:26:25;;;;;;;29.17;2.90;;;2.00;99.90;;;;;;4966095;28;20050;-96
2022/01/06 01:28:51;;;;;;;26.67;2.67;;;2.10;99.90;;;;;;4969038;28;20051;-96
2022/01/06 01:33:45;;;;;;;32.33;3.17;;;2.00;99.90;;;;;;4964659;28;20066;-96
2022/01/06 01:36:11;;;;;;;23.75;2.60;;;2.00;99.90;;;;;;4953726;28;20065;-96
2022/01/06 01:38:38;;;;;;;24.55;2.80;;;2.00;99.90;;;;;;4966058;28;20114;-96
2022/01/06 01:41:05;;;;;;;20.23;2.42;;;2.30;99.90;;;;;;4959756;28;20058;-96
2022/01/06 01:43:31;;;;;;;25.88;3.17;;;2.10;99.90;;;;;;4967184;28;20055;-96
2022/01/06 01:45:59;;;;;;;32.38;3.67;;;2.10;99.90;;;;;;4967385;28;20474;-96
2022/01/06 01:48:33;;;;;;;20.60;3.08;;;2.40;99.90;;;;;;4966212;28;20054;-96
2022/01/06 01:50:59;;;;;;;31.70;2.63;;;2.30;99.90;;;;;;4964745;28;20062;-96
2022/01/06 01:53:25;;;;;;;32.78;3.70;;;2.00;99.90;;;;;;4981031;28;20043;-96
2022/01/06 01:55:51;;;;;;;30.35;2.47;;;2.30;99.90;;;;;;4981776;28;20062;-96
2022/01/06 01:58:18;;;;;;;20.75;2.45;;;2.00;99.90;;;;;;4965599;28;20065;-96
2022/01/06 02:00:44;;;;;;;29.20;2.92;;;2.00;99.90;;;;;;4965418;28;20054;-96
2022/01/06 02:03:09;;;;;;;26.67;2.70;;;2.00;99.90;;;;;;4968958;28;20476;-96
2022/01/06 02:05:35;;;;;;;32.85;2.90;;;2.20;99.90;;;;;;4988029;28;20050;-96
2022/01/06 02:08:02;;;;;;;26.77;3.38;;;1.90;99.90;;;;;;4966756;28;20125;-96
2022/01/06 02:10:29;;;;;;;19.50;2.72;;;1.90;99.90;;;;;;4965924;28;20117;-96
2022/01/06 02:12:57;;;;;;;30.85;3.55;;;1.80;99.90;;;;;;4966107;28;20054;-96
2022/01/06 02:15:23;;;;;;;25.25;2.53;;;1.80;99.90;;;;;;4965301;28;20078;-96
2022/01/06 02:17:50;;;;;;;28.85;3.03;;;1.70;99.90;;;;;;4984954;28;20093;-96
2022/01/06 02:20:17;;;;;;;31.25;3.33;;;1.70;99.90;;;;;;4971583;28;20059;-96
2022/01/06 02:22:44;;;;;;;23.63;2.72;;;2.00;99.90;;;;;;4970231;28;20054;-96
2022/01/06 02:25:18;;;;;;;26.00;2.65;;;1.60;99.90;;;;;;4969031;28;20078;-96
2022/01/06 02:27:48;;;;;;;28.63;3.22;;;1.80;99.90;;;;;;4984599;28;20059;-96
2022/01/06 02:30:14;;;;;;;31.00;2.80;;;1.50;99.90;;;;;;4971076;28;20054;-96
2022/01/06 02:32:41;;;;;;;29.10;3.58;;;1.80;99.90;;;;;;4965157;28;20443;-96
2022/01/06 02:35:13;;;;;;;26.65;2.90;;;1.50;99.90;;;;;;4965312;28;20049;-96
2022/01/06 02:37:39;;;;;;;28.08;3.70;;;1.40;99.90;;;;;;4981146;28;20054;-96
2022/01/06 02:40:13;;;;;;;27.27;3.05;;;1.40;99.90;;;;;;4964530;28;20057;-96
2022/01/06 02:42:41;;;;;;;25.30;2.38;;;1.50;99.90;;;;;;4964769;28;20524;-96
2022/01/06 02:45:07;;;;;;;23.73;3.03;;;1.50;99.90;;;;;;4965960;28;20499;-96
2022/01/06 02:47:33;;;;;;;26.15;2.25;;;1.50;99.90;;;;;;4965196;28;20050;-96
2022/01/06 02:49:58;;;;;;;38.42;4.07;;;1.50;99.90;;;;;;4964268;28;20120;-96
2022/01/06 02:52:24;;;;;;;27.30;2.85;;;1.50;99.90;;;;;;4980508;28;20046;-96
2022/01/06 02:54:50;;;;;;;25.48;2.92;;;1.40;99.90;;;;;;4964136;28;20050;-96
2022/01/06 02:57:15;;;;;;;24.85;2.70;;;1.40;99.90;;;;;;4980817;28;20050;-96
2022/01/06 02:59:42;;;;;;;19.02;2.50;;;1.70;99.90;;;;;;4964459;28;20054;-96
2022/01/06 03:02:09;;;;;;;31.25;2.58;;;1.50;99.90;;;;;;4980099;28;20060;-96
2022/01/06 03:04:34;;;;;;;21.83;2.50;;;1.40;99.90;;;;;;4963781;28;20456;-96
2022/01/06 03:07:01;;;;;;;28.20;2.40;;;1.40;99.90;;;;;;4963947;28;20096;-96
2022/01/06 03:09:37;;;;;;;24.15;2.30;;;1.40;99.90;;;;;;4963467;28;20455;-96
2022/01/06 03:12:22;;;;;;;40.53;3.72;;;1.40;99.90;;;;;;4963719;28;20057;-96
2022/01/06 03:14:48;;;;;;;18.75;2.42;;;1.40;99.90;;;;;;4964029;28;20554;-96
2022/01/06 03:17:13;;;;;;;23.25;2.72;;;1.40;99.90;;;;;;4979990;28;20100;-96
2022/01/06 03:19:39;;;;;;;21.75;2.40;;;1.40;99.90;;;;;;4963715;28;20492;-96
2022/01/06 03:22:05;;;;;;;27.75;2.65;;;1.30;99.90;;;;;;4963331;28;20062;-96
2022/01/06 03:24:31;;;;;;;18.80;2.42;;;1.30;99.90;;;;;;4963666;28;20181;-96
2022/01/06 03:26:56;;;;;;;26.52;2.58;;;1.20;99.90;;;;;;4979708;28;20058;-96
2022/01/06 03:29:22;;;;;;;24.42;2.47;;;1.40;99.90;;;;;;4963352;28;20057;-96
2022/01/06 03:31:48;;;;;;;13.75;2.53;;;1.20;99.90;;;;;;4963512;28;20532;-96
2022/01/06 03:34:14;;;;;;;34.40;2.67;;;1.40;99.90;;;;;;4979084;28;20052;-95
2022/01/06 03:36:39;;;;;;;26.38;2.70;;;1.10;99.90;;;;;;4963303;28;20058;-95
2022/01/06 03:39:05;;;;;;;21.38;2.03;;;1.20;99.90;;;;;;4963362;28;20058;-95
2022/01/06 03:41:32;;;;;;;21.50;2.90;;;1.00;99.90;;;;;;4948691;28;20444;-96
2022/01/06 03:43:58;;;;;;;26.20;2.75;;;0.90;99.90;;;;;;4944110;28;20058;-95
2022/01/06 03:46:24;;;;;;;19.75;2.15;;;0.80;99.90;;;;;;4944192;28;20166;-96
2022/01/06 03:48:49;;;;;;;26.67;2.33;;;0.80;99.90;;;;;;4960151;28;20149;-96
2022/01/06 03:51:16;;;;;;;21.15;2.92;;;0.70;99.90;;;;;;4975922;28;20086;-96
2022/01/06 03:53:42;;;;;;;27.58;3.00;;;0.70;99.90;;;;;;4943503;28;20050;-96
2022/01/06 03:56:07;;;;;;;24.00;3.30;;;0.60;99.90;;;;;;4943550;28;20058;-95
2022/01/06 03:58:33;;;;;;;21.00;2.92;;;0.60;99.90;;;;;;4943556;28;20054;-95
2022/01/06 04:00:59;;;;;;;18.63;2.65;;;0.50;99.90;;;;;;4959441;28;20415;-95
2022/01/06 04:03:24;;;;;;;18.23;2.15;;;0.50;99.90;;;;;;4959571;28;20051;-95
2022/01/06 04:05:50;;;;;;;30.58;3.28;;;0.50;99.90;;;;;;4975510;28;20078;-96
2022/01/06 04:08:16;;;;;;;24.95;2.75;;;0.50;99.90;;;;;;4975267;28;20054;-96
2022/01/06 04:10:41;;;;;;;21.23;2.35;;;0.50;99.90;;;;;;4943695;28;20066;-96
2022/01/06 04:13:07;;;;;;;19.98;2.10;;;0.60;99.90;;;;;;4959717;28;20529;-93
2022/01/06 04:15:33;;;;;;;18.73;2.50;;;0.60;99.90;;;;;;4943266;28;20508;-94
2022/01/06 04:17:58;;;;;;;21.75;2.03;;;0.60;99.90;;;;;;4943440;28;20502;-93
2022/01/06 04:20:24;;;;;;;19.25;2.03;;;0.60;99.90;;;;;;4943291;28;20081;-95
2022/01/06 04:22:50;;;;;;;21.30;2.67;;;0.60;99.90;;;;;;4959090;28;20050;-95
2022/01/06 04:25:15;;;;;;;17.98;1.85;;;0.40;99.90;;;;;;4942356;28;20133;-96
2022/01/06 04:27:41;;;;;;;22.35;2.72;;;0.40;99.90;;;;;;4975214;28;20055;-95
2022/01/06 04:30:08;;;;;;;26.23;2.38;;;0.30;99.90;;;;;;4959226;28;20061;-96
2022/01/06 04:32:35;;;;;;;21.33;2.25;;;0.20;99.90;;;;;;4942921;28;20117;-95
2022/01/06 04:35:01;;;;;;;33.15;2.58;;;0.20;99.90;;;;;;4942685;28;20109;-96
2022/01/06 04:37:28;;;;;;;15.05;1.75;;;0.10;99.90;;;;;;4942933;28;20070;-95
2022/01/06 04:39:54;;;;;;;16.40;2.13;;;0.10;99.90;;;;;;4943615;28;20059;-95
2022/01/06 04:42:20;;;;;;;29.73;2.05;;;0.00;99.90;;;;;;4962064;28;20061;-96
2022/01/06 04:44:45;;;;;;;18.77;2.38;;;0.00;99.90;;;;;;4978291;28;20066;-96
2022/01/06 04:47:11;;;;;;;18.35;2.22;;;-0.10;99.90;;;;;;4978108;28;20050;-95
2022/01/06 04:49:37;;;;;;;21.73;2.30;;;-0.10;99.90;;;;;;4961882;28;20054;-95
2022/01/06 04:52:03;;;;;;;22.23;2.00;;;-0.10;99.90;;;;;;4961549;28;20069;-96
2022/01/06 04:54:29;;;;;;;28.05;2.00;;;-0.10;99.90;;;;;;4977221;28;20068;-94
2022/01/06 04:56:54;;;;;;;27.63;2.38;;;-0.10;99.90;;;;;;4961976;28;20136;-95
2022/01/06 04:59:20;;;;;;;21.40;2.47;;;-0.20;99.90;;;;;;4961653;28;20072;-96
2022/01/06 05:01:46;;;;;;;21.33;2.20;;;-0.30;99.90;;;;;;4977899;28;20141;-95
2022/01/06 05:04:11;;;;;;;16.60;2.03;;;-0.30;99.90;;;;;;4961812;28;20399;-96
2022/01/06 05:06:37;;;;;;;31.33;2.38;;;-0.50;99.90;;;;;;4961913;28;20117;-94
2022/01/06 05:09:03;;;;;;;24.80;1.75;;;-0.50;99.90;;;;;;4977491;28;20117;-94
2022/01/06 05:11:29;;;;;;;18.00;1.88;;;-0.60;99.90;;;;;;4961413;28;20050;-94
2022/01/06 05:13:56;;;;;;;25.52;2.17;;;-0.20;99.90;;;;;;4961445;28;20050;-95
2022/01/06 05:16:22;;;;;;;19.25;2.05;;;-0.60;99.90;;;;;;4961032;28;20058;-95
2022/01/06 05:18:48;;;;;;;29.92;2.95;;;-0.70;99.90;;;;;;4961521;28;20108;-96
2022/01/06 05:21:13;;;;;;;21.65;2.20;;;-0.50;99.90;;;;;;4961288;28;20485;-96
2022/01/06 05:23:40;;;;;;;19.95;1.85;;;-0.40;99.90;;;;;;4961097;28;20050;-96
2022/01/06 05:26:07;;;;;;;22.33;3.05;;;-0.30;99.90;;;;;;4961404;28;20065;-95
2022/01/06 05:28:33;;;;;;;25.40;2.47;;;-0.40;99.90;;;;;;4961613;28;20058;-96
2022/01/06 05:30:59;;;;;;;24.10;1.83;;;-0.40;99.90;;;;;;4961402;28;20064;-96
2022/01/06 05:33:25;;;;;;;26.00;2.42;;;-0.50;99.90;;;;;;4961296;28;20057;-95
2022/01/06 05:35:51;;;;;;;20.08;1.95;;;-0.60;99.90;;;;;;4960818;28;20062;-96
2022/01/06 05:38:16;;;;;;;21.75;2.38;;;-0.60;99.90;;;;;;4961062;28;20053;-96
2022/01/06 05:40:42;;;;;;;22.20;2.08;;;-0.50;99.90;;;;;;4953091;28;20129;-96
2022/01/06 05:43:08;;;;;;;27.20;2.13;;;-0.50;99.90;;;;;;4942115;28;20121;-96
2022/01/06 05:45:34;;;;;;;33.28;2.60;;;-0.50;99.90;;;;;;4958256;28;20043;-96
2022/01/06 05:47:59;;;;;;;20.65;3.40;;;-0.50;99.90;;;;;;4942099;28;20049;-95
2022/01/06 05:50:27;;;;;;;18.67;1.60;;;-0.60;99.90;;;;;;4941945;28;20106;-96
2022/01/06 05:52:54;;;;;;;21.63;2.25;;;-0.70;99.90;;;;;;4941809;28;20051;-96
2022/01/06 05:55:21;;;;;;;18.35;2.33;;;-0.80;99.90;;;;;;4941473;28;20456;-95
2022/01/06 05:57:47;;;;;;;26.63;2.60;;;-0.80;99.90;;;;;;4958250;28;20058;-96
2022/01/06 06:00:13;;;;;;;25.70;2.15;;;-0.90;99.90;;;;;;4941770;28;20113;-96
2022/01/06 06:02:39;;;;;;;22.08;2.53;;;-0.90;99.90;;;;;;4941816;28;20105;-96
2022/01/06 06:05:05;;;;;;;25.30;2.28;;;-1.00;99.90;;;;;;4941665;28;20047;-95
2022/01/06 06:07:31;;;;;;;32.63;3.00;;;-1.00;99.90;;;;;;4941276;28;20221;-96
2022/01/06 06:09:56;;;;;;;24.98;2.53;;;-1.00;99.90;;;;;;4973639;28;20054;-95
2022/01/06 06:12:22;;;;;;;26.63;2.60;;;-1.00;99.90;;;;;;4941951;28;20109;-94
2022/01/06 06:14:48;;;;;;;24.85;2.95;;;-1.00;99.90;;;;;;4957702;28;20301;-96
2022/01/06 06:17:13;;;;;;;21.85;2.25;;;-1.00;99.90;;;;;;4973761;28;20055;-96
2022/01/06 06:19:39;;;;;;;26.95;2.92;;;-1.10;99.90;;;;;;4956849;28;20055;-96
2022/01/06 06:22:05;;;;;;;23.42;2.80;;;-1.10;99.90;;;;;;4942028;28;20493;-95
2022/01/06 06:24:31;;;;;;;19.08;1.92;;;-1.10;99.90;;;;;;4941873;28;20058;-96
2022/01/06 06:26:56;;;;;;;27.30;2.13;;;-1.20;99.90;;;;;;4941409;28;20122;-96
2022/01/06 06:29:22;;;;;;;27.73;2.17;;;-1.20;99.90;;;;;;4957553;28;20101;-96
2022/01/06 06:31:48;;;;;;;23.48;2.45;;;-1.20;99.90;;;;;;4973597;28;20508;-96
2022/01/06 06:34:14;;;;;;;28.90;2.55;;;-1.30;99.90;;;;;;4941465;28;20507;-96
2022/01/06 06:36:40;;;;;;;25.63;2.30;;;-1.40;99.90;;;;;;4941373;28;20551;-96
2022/01/06 06:39:06;;;;;;;26.77;2.33;;;-1.30;99.90;;;;;;4941419;28;20055;-96
2022/01/06 06:41:32;;;;;;;28.55;2.90;;;-1.40;99.90;;;;;;4955260;28;20050;-95
2022/01/06 06:43:58;;;;;;;22.55;2.08;;;-0.50;99.90;;;;;;4960908;28;20054;-96
2022/01/06 06:46:24;;;;;;;16.35;2.00;;;-0.20;99.90;;;;;;4960783;28;20055;-96
2022/01/06 06:48:49;;;;;;;26.38;2.38;;;-0.20;99.90;;;;;;4963654;28;20058;-96
2022/01/06 06:51:15;;;;;;;22.98;2.30;;;-0.20;99.90;;;;;;4964126;28;20063;-95
2022/01/06 06:53:41;;;;;;;26.25;2.38;;;-0.20;99.90;;;;;;4960984;28;20050;-96
2022/01/06 06:56:07;;;;;;;23.67;2.70;;;-0.30;99.90;;;;;;4945003;28;20481;-95
2022/01/06 06:58:33;;;;;;;22.25;2.08;;;-0.40;99.90;;;;;;4961046;28;20055;-96
2022/01/06 07:00:59;;;;;;;22.15;2.10;;;-0.30;99.90;;;;;;4960858;28;20055;-94
2022/01/06 07:03:25;;;;;;;23.50;2.35;;;-0.30;99.90;;;;;;4944901;28;20094;-95
2022/01/06 07:05:50;;;;;;;33.50;2.55;;;-0.50;99.90;;;;;;4944416;28;20121;-96
2022/01/06 07:08:16;;;;;;;32.30;3.28;;;-0.60;99.90;;;;;;4945036;28;20121;-96
2022/01/06 07:10:42;;;;;;;25.58;2.28;;;-0.60;99.90;;;;;;4944513;28;20063;-96
2022/01/06 07:13:08;;;;;;;21.08;3.55;;;-0.50;99.90;;;;;;4944662;28;20050;-96
2022/01/06 07:15:38;;;;;;;35.13;3.17;;;-0.70;99.90;;;;;;4960193;28;20047;-96
2022/01/06 07:18:03;;;;;;;23.77;2.67;;;-0.70;99.90;;;;;;4947734;28;20500;-96
2022/01/06 07:20:29;;;;;;;31.38;3.10;;;-0.70;99.90;;;;;;4960620;28;20093;-95
2022/01/06 07:22:55;;;;;;;34.42;3.05;;;-0.70;99.90;;;;;;4944637;28;20050;-95
2022/01/06 07:25:21;;;;;;;25.63;3.17;;;-0.70;99.90;;;;;;4944621;28;20047;-94
2022/01/06 07:27:47;;;;;;;18.60;2.10;;;-0.90;99.90;;;;;;4944080;28;20066;-95
2022/01/06 07:30:13;;;;;;;20.05;2.70;;;-0.90;99.90;;;;;;4944133;28;20488;-95
2022/01/06 07:32:46;;;;;;;20.05;2.92;;;-0.90;99.90;;;;;;4943663;28;20058;-96
2022/01/06 07:35:13;;;;;;;25.35;3.00;;;-0.90;99.90;;;;;;4943509;28;20069;-96
2022/01/06 07:37:38;;;;;;;28.58;3.10;;;-0.80;99.90;;;;;;4959932;28;20420;-96
2022/01/06 07:40:06;;;;;;;31.17;3.50;;;-0.80;99.90;;;;;;4943926;28;20058;-95
2022/01/06 07:42:32;;;;;;;32.42;3.35;;;-0.70;99.90;;;;;;4959846;28;20097;-96
2022/01/06 07:45:00;;;;;;;30.77;3.83;;;-0.80;99.90;;;;;;4959902;28;20157;-95
2022/01/06 07:47:28;;;;;;;27.30;2.78;;;-0.70;99.90;;;;;;4943686;28;20050;-95
2022/01/06 07:49:54;;;;;;;23.60;2.83;;;-0.70;99.90;;;;;;4960621;28;20055;-92
2022/01/06 07:52:21;;;;;;;31.77;3.35;;;-0.80;99.90;;;;;;4946291;28;20050;-92
2022/01/06 07:54:53;;;;;;;31.02;3.17;;;-0.90;99.90;;;;;;4946618;28;20043;-94
2022/01/06 07:57:19;;;;;;;38.60;3.80;;;-0.90;99.90;;;;;;4946094;28;20054;-95
2022/01/06 07:59:44;;;;;;;36.50;3.25;;;-0.90;99.90;;;;;;4946556;28;20097;-96
2022/01/06 08:02:10;;;;;;;24.17;2.53;;;-1.00;99.90;;;;;;4947482;28;20055;-95
2022/01/06 08:04:36;;;;;;;24.17;3.22;;;-0.90;99.90;;;;;;4962360;28;20062;-94
2022/01/06 08:07:03;;;;;;;26.17;3.53;;;-0.60;99.90;;;;;;4961987;28;20051;-94
2022/01/06 08:09:29;;;;;;;22.55;4.07;;;-0.90;99.90;;;;;;4946490;28;20082;-94
2022/01/06 08:11:54;;;;;;;29.98;4.43;;;-0.60;99.90;;;;;;4962708;28;20456;-93
2022/01/06 08:14:20;;;;;;;33.88;4.72;;;-0.90;99.90;;;;;;4947303;28;20544;-93
2022/01/06 08:16:46;;;;;;;21.63;3.45;;;-0.90;99.90;;;;;;4962625;28;20090;-94
2022/01/06 08:19:12;;;;;;;24.88;3.30;;;-0.80;99.90;;;;;;4962328;28;20042;-94
2022/01/06 08:21:38;;;;;;;25.77;4.07;;;-0.90;99.90;;;;;;4966955;28;20054;-95
2022/01/06 08:24:04;;;;;;;27.30;3.95;;;-0.90;99.90;;;;;;4953109;28;20428;-95
2022/01/06 08:26:30;;;;;;;37.55;4.40;;;-1.00;99.90;;;;;;4951455;28;20109;-93
2022/01/06 08:28:56;;;;;;;37.17;5.00;;;-0.90;99.90;;;;;;4966173;28;20050;-94
2022/01/06 08:31:22;;;;;;;24.77;4.88;;;-0.60;99.90;;;;;;4952780;28;20058;-94
2022/01/06 08:33:48;;;;;;;31.52;4.65;;;-0.80;99.90;;;;;;4953025;28;20078;-93
2022/01/06 08:36:14;;;;;;;22.88;4.07;;;-0.70;99.90;;;;;;4953503;28;20050;-94
2022/01/06 08:38:39;;;;;;;23.63;3.63;;;-0.70;99.90;;;;;;4958119;28;20055;-94
2022/01/06 08:41:05;;;;;;;27.83;4.05;;;-0.60;99.90;;;;;;4952609;28;20047;-94
2022/01/06 08:43:31;;;;;;;28.63;3.47;;;-0.50;99.90;;;;;;4969805;28;20465;-94
2022/01/06 08:45:58;;;;;;;22.98;3.60;;;-0.40;99.90;;;;;;4969765;28;20050;-94
2022/01/06 08:48:25;;;;;;;26.90;4.00;;;-0.30;99.90;;;;;;4949347;28;20047;-94
2022/01/06 08:50:51;;;;;;;31.00;3.75;;;-0.30;99.90;;;;;;4946610;28;20385;-95
2022/01/06 08:53:17;;;;;;;27.08;3.40;;;-0.10;99.90;;;;;;4946477;28;20050;-94
2022/01/06 08:55:46;;;;;;;27.27;3.70;;;-0.30;99.90;;;;;;4946194;28;20101;-95
2022/01/06 08:58:14;;;;;;;20.35;3.47;;;-0.10;99.90;;;;;;4962854;28;20059;-95
2022/01/06 09:00:41;;;;;;;21.13;3.60;;;0.00;99.90;;;;;;4946098;28;20050;-94
2022/01/06 09:03:07;;;;;;;31.38;3.88;;;-0.20;99.90;;;;;;4946259;28;20053;-95
2022/01/06 09:05:37;;;;;;;34.38;4.25;;;-0.10;99.90;;;;;;4946028;28;20145;-95
2022/01/06 09:08:05;;;;;;;30.33;3.80;;;0.20;99.90;;;;;;4946077;28;20187;-96
2022/01/06 09:10:33;;;;;;;27.23;3.38;;;0.40;99.90;;;;;;4944912;28;20609;-96
2022/01/06 09:13:00;;;;;;;32.50;3.55;;;0.70;99.90;;;;;;4946167;28;20078;-95
2022/01/06 09:15:26;;;;;;;29.17;3.83;;;0.90;99.90;;;;;;4945497;28;20227;-95
2022/01/06 09:17:52;;;;;;;21.90;3.58;;;1.30;99.90;;;;;;4954034;28;20050;-95
2022/01/06 09:20:18;;;;;;;30.88;3.65;;;1.80;99.90;;;;;;4979043;28;20061;-95
2022/01/06 09:22:45;;;;;;;28.90;3.60;;;2.20;99.90;;;;;;4977186;28;20071;-95
2022/01/06 09:25:14;;;;;;;21.98;3.58;;;2.80;99.90;;;;;;4976463;28;20055;-94
2022/01/06 09:27:41;;;;;;;27.42;4.38;;;3.40;99.90;;;;;;4945439;28;20142;-95
2022/01/06 09:30:08;;;;;;;20.75;3.63;;;4.10;99.90;;;;;;4946545;28;20055;-94
2022/01/06 09:32:34;;;;;;;32.17;4.22;;;4.30;99.90;;;;;;4946566;28;20074;-95
2022/01/06 09:35:03;;;;;;;26.30;3.05;;;4.80;99.90;;;;;;4944942;28;20042;-94
2022/01/06 09:37:29;;;;;;;23.55;3.95;;;5.20;99.90;;;;;;4960563;28;20054;-94
2022/01/06 09:39:55;;;;;;;23.00;3.67;;;5.80;99.90;;;;;;4960049;28;20114;-95
2022/01/06 09:42:21;;;;;;;24.90;3.60;;;6.10;99.90;;;;;;4945102;28;20050;-94
2022/01/06 09:44:51;;;;;;;36.28;5.45;;;6.40;99.90;;;;;;4959937;28;20058;-95
2022/01/06 09:47:18;;;;;;;13.45;3.28;;;6.60;99.90;;;;;;4944090;28;20583;-94
2022/01/06 09:49:45;;;;;;;15.30;3.25;;;6.80;99.90;;;;;;4957290;28;20154;-94
2022/01/06 09:52:13;;;;;;;24.25;3.13;;;6.90;99.90;;;;;;4958087;28;20051;-94
2022/01/06 09:54:39;;;;;;;15.40;2.67;;;7.40;99.90;;;;;;4953074;28;20575;-94
2022/01/06 09:57:06;;;;;;;25.17;3.47;;;7.60;99.90;;;;;;4942442;28;20057;-94
2022/01/06 09:59:32;;;;;;;16.80;3.80;;;7.90;99.90;;;;;;4939454;28;20078;-93
2022/01/06 10:01:58;;;;;;;17.65;3.35;;;8.20;99.90;;;;;;4941100;28;20054;-93
2022/01/06 10:04:29;;;;;;;20.48;3.45;;;8.50;99.90;;;;;;4958004;28;20053;-93
2022/01/06 10:07:06;;;;;;;25.77;3.95;;;8.80;99.90;;;;;;4942360;28;20054;-93
2022/01/06 10:09:34;;;;;;;15.48;2.72;;;8.90;99.90;;;;;;4943431;28;20062;-96
2022/01/06 10:12:03;;;;;;;17.27;3.67;;;9.30;99.90;;;;;;4942294;28;20419;-96
2022/01/06 10:14:45;;;;;;;19.10;3.47;;;9.50;99.90;;;;;;4941953;28;20042;-95
2022/01/06 10:17:15;;;;;;;17.60;3.20;;;9.80;99.90;;;;;;4957679;28;20059;-96
2022/01/06 10:19:44;;;;;;;21.08;3.13;;;10.10;99.90;;;;;;4943028;28;20082;-95
2022/01/06 10:22:16;;;;;;;13.15;3.45;;;10.20;99.90;;;;;;4942953;28;20057;-96
2022/01/06 10:24:46;;;;;;;20.45;3.40;;;10.00;99.90;;;;;;4945119;28;20058;-95
2022/01/06 10:27:20;;;;;;;21.58;4.13;;;10.00;99.90;;;;;;4947437;28;20054;-95
2022/01/06 10:29:51;;;;;;;21.50;3.30;;;10.40;99.90;;;;;;4959465;28;20043;-96
2022/01/06 10:32:18;;;;;;;;;;;10.60;99.90;;;;;;4964429;28;20039;-96
2022/01/06 10:34:46;;;;;;;15.23;2.78;;;10.70;99.90;;;;;;4963482;28;20442;-96
2022/01/06 10:37:26;;;;;;;20.00;3.40;;;10.90;99.90;;;;;;4949143;28;20054;-96
2022/01/06 10:39:58;;;;;;;16.75;3.08;;;11.00;99.90;;;;;;4949100;28;20078;-95
2022/01/06 10:42:29;;;;;;;19.52;3.70;;;11.10;99.90;;;;;;4964941;28;20050;-96
2022/01/06 10:45:00;;;;;;;17.98;2.92;;;11.20;99.90;;;;;;4970954;28;20103;-96
2022/01/06 10:47:34;;;;;;;18.52;3.35;;;11.20;99.90;;;;;;4956870;28;20110;-96
2022/01/06 10:50:13;;;;;;;19.85;3.15;;;11.10;99.90;;;;;;4955047;28;20050;-96
2022/01/06 10:52:40;;;;;;;12.73;3.00;;;11.40;99.90;;;;;;4971471;28;20046;-95
2022/01/06 10:55:11;;;;;;;18.55;2.97;;;11.30;99.90;;;;;;4951747;28;20086;-95
2022/01/06 10:58:16;;;;;;;12.88;2.45;;;11.40;99.90;;;;;;4971038;28;20078;-96
2022/01/06 11:00:43;;;;;;;12.02;2.80;;;11.60;99.90;;;;;;4924594;29;20040;-96
2022/01/06 11:03:15;;;;;;;13.32;2.83;;;11.90;99.90;;;;;;4926316;29;20119;-94
2022/01/06 11:05:45;;;;;;;16.40;2.55;;;11.70;99.90;;;;;;4924483;29;20110;-96
2022/01/06 11:08:13;;;;;;;12.05;2.45;;;11.70;99.90;;;;;;4919028;29;20060;-95
2022/01/06 11:10:46;;;;;;;15.63;3.45;;;11.60;99.90;;;;;;4905499;29;20048;-96
2022/01/06 11:13:12;;;;;;;10.45;2.65;;;11.50;99.90;;;;;;4919654;29;20107;-95
2022/01/06 11:15:38;;;;;;;15.48;3.15;;;11.40;99.90;;;;;;4922929;29;20055;-94
2022/01/06 11:18:05;;;;;;;14.88;3.00;;;11.20;99.90;;;;;;4904648;29;20060;-95
2022/01/06 11:20:34;;;;;;;22.38;3.20;;;10.90;99.90;;;;;;4904947;29;20125;-95
2022/01/06 11:23:01;;;;;;;17.20;2.85;;;10.70;99.90;;;;;;4917959;29;20171;-95
2022/01/06 11:25:31;;;;;;;17.02;3.60;;;10.70;99.90;;;;;;4930417;29;20500;-95
2022/01/06 11:28:05;;;;;;;18.75;3.15;;;10.80;99.90;;;;;;4918776;29;20055;-94
2022/01/06 11:30:42;;;;;;;15.90;3.40;;;10.60;99.90;;;;;;4920646;29;20048;-95
2022/01/06 11:33:08;;;;;;;18.50;3.25;;;10.40;99.90;;;;;;4916577;29;20059;-96
2022/01/06 11:35:51;;;;;;;14.55;3.08;;;10.20;99.90;;;;;;4919698;29;20052;-95
2022/01/06 11:38:19;;;;;;;16.58;3.03;;;9.80;99.90;;;;;;4963165;28;20054;-94
2022/01/06 11:40:50;;;;;;;15.00;2.63;;;9.80;99.90;;;;;;4978732;28;20047;-95
2022/01/06 11:43:17;;;;;;;15.23;2.55;;;9.70;99.90;;;;;;4969472;28;20039;-94
2022/01/06 11:45:46;;;;;;;18.55;2.70;;;9.60;99.90;;;;;;4960919;28;20046;-94
2022/01/06 11:48:14;;;;;;;20.05;2.78;;;9.50;99.90;;;;;;4952186;28;20101;-95
2022/01/06 11:50:48;;;;;;;20.25;3.22;;;9.10;99.90;;;;;;4972750;28;20051;-95
2022/01/06 11:53:16;;;;;;;14.93;2.97;;;9.30;99.90;;;;;;4953854;28;20043;-96
2022/01/06 11:55:48;;;;;;;17.67;2.63;;;9.30;99.90;;;;;;4951748;28;20043;-95
2022/01/06 11:58:19;;;;;;;20.83;3.20;;;9.50;99.90;;;;;;4964573;28;20050;-94
2022/01/06 12:01:00;;;;;;;20.20;2.47;;;10.10;99.90;;;;;;4953689;28;20047;-96
2022/01/06 12:03:36;;;;;;;21.57;2.73;;;9.90;99.90;;;;;;4946992;28;20059;-95
2022/01/06 12:06:02;;;;;;;18.38;3.15;;;9.30;99.90;;;;;;4973085;28;20129;-96
2022/01/06 12:08:40;;;;;;;16.15;2.65;;;9.40;99.90;;;;;;4946311;28;20080;-96
2022/01/06 12:11:18;;;;;;;19.52;2.83;;;9.40;99.90;;;;;;4943193;28;20137;-95
2022/01/06 12:13:45;;;;;;;19.73;2.70;;;9.00;99.90;;;;;;4950785;28;20074;-96
2022/01/06 12:16:11;;;;;;;14.95;2.75;;;9.20;99.90;;;;;;4953501;28;20391;-94
2022/01/06 12:18:37;;;;;;;15.07;2.95;;;9.20;99.90;;;;;;4954320;28;20043;-94
2022/01/06 12:21:03;;;;;;;19.50;3.00;;;9.20;99.90;;;;;;4955575;28;20042;-94
2022/01/06 12:23:29;;;;;;;18.92;3.30;;;9.40;99.90;;;;;;4971090;28;20046;-94
2022/01/06 12:25:56;;;;;;;18.50;3.03;;;9.10;99.90;;;;;;4956603;28;20060;-96
2022/01/06 12:28:23;;;;;;;16.15;3.40;;;9.10;99.90;;;;;;4955364;28;20042;-95
2022/01/06 12:30:48;;;;;;;16.05;2.78;;;8.80;99.90;;;;;;4955327;28;20046;-95
2022/01/06 12:33:19;;;;;;;17.70;2.40;;;8.60;99.90;;;;;;4955576;28;20128;-94
2022/01/06 12:35:49;;;;;;;21.35;2.75;;;8.80;99.90;;;;;;4967675;28;20042;-94
2022/01/06 12:38:18;;;;;;;17.23;3.40;;;8.60;99.90;;;;;;4954679;28;20050;-95
2022/01/06 12:40:55;;;;;;;21.20;2.63;;;8.40;99.90;;;;;;4948826;28;20384;-96
2022/01/06 12:43:25;;;;;;;12.50;2.60;;;8.40;99.90;;;;;;4979822;28;20129;-94
2022/01/06 12:46:15;;;;;;;15.98;2.42;;;8.20;99.90;;;;;;4951828;28;20496;-94
2022/01/06 12:48:46;;;;;;;17.38;2.67;;;8.20;99.90;;;;;;4955940;28;20518;-94
2022/01/06 12:51:17;;;;;;;17.63;2.67;;;8.20;99.90;;;;;;4954504;28;20074;-94
2022/01/06 12:53:45;;;;;;;17.30;2.90;;;8.20;99.90;;;;;;4972326;28;20480;-95
2022/01/06 12:56:49;;;;;;;18.67;2.75;;;8.20;99.90;;;;;;4974302;28;20427;-94